createdAt,value
2022-10-20T00:00:43.889Z,17.44
2022-10-20T00:03:47.981Z,17.51
2022-10-20T00:06:51.048Z,17.45
2022-10-20T00:09:54.104Z,17.30
2022-10-20T00:12:57.213Z,17.11
2022-10-20T00:16:01.987Z,16.84
2022-10-20T00:19:05.527Z,16.95
2022-10-20T00:22:08.763Z,16.96
2022-10-20T00:25:11.777Z,16.91
2022-10-20T00:28:14.981Z,17.04
2022-10-20T00:31:21.043Z,16.65
2022-10-20T00:34:24.137Z,16.91
2022-10-20T00:37:27.205Z,16.96
2022-10-20T00:40:30.306Z,16.99
2022-10-20T00:43:48.609Z,17.06
2022-10-20T00:46:53.558Z,17.15
2022-10-20T00:50:08.402Z,17.26
2022-10-20T00:53:12.449Z,17.36
2022-10-20T00:56:15.772Z,17.41
2022-10-20T00:59:23.009Z,17.48
2022-10-20T01:02:27.893Z,17.42
2022-10-20T01:05:31.101Z,17.51
2022-10-20T01:08:34.300Z,17.60
2022-10-20T01:11:44.083Z,17.66
2022-10-20T01:14:56.440Z,17.72
2022-10-20T01:18:09.919Z,17.69
2022-10-20T01:21:48.953Z,17.75
2022-10-20T01:25:07.632Z,17.82
2022-10-20T01:28:18.242Z,17.85
2022-10-20T01:31:30.818Z,17.80
2022-10-20T01:34:40.169Z,17.86
2022-10-20T01:37:49.560Z,17.98
2022-10-20T01:40:59.634Z,17.86
2022-10-20T01:44:07.102Z,17.78
2022-10-20T01:47:11.738Z,17.90
2022-10-20T01:50:16.948Z,17.81
2022-10-20T01:53:21.295Z,17.89
2022-10-20T01:56:31.215Z,17.86
2022-10-20T01:59:46.988Z,17.86
2022-10-20T02:03:13.434Z,17.75
2022-10-20T02:06:26.209Z,17.80
2022-10-20T02:09:37.760Z,17.56
2022-10-20T02:12:44.226Z,17.76
2022-10-20T02:15:52.628Z,17.86
2022-10-20T02:18:56.635Z,17.68
2022-10-20T02:21:59.845Z,17.65
2022-10-20T02:25:03.153Z,17.74
2022-10-20T02:28:10.160Z,17.64
2022-10-20T02:31:14.931Z,17.69
2022-10-20T02:34:18.034Z,17.50
2022-10-20T02:37:21.182Z,17.61
2022-10-20T02:40:24.822Z,17.29
2022-10-20T02:43:27.909Z,17.48
2022-10-20T02:46:32.502Z,17.29
2022-10-20T02:49:35.582Z,17.39
2022-10-20T02:52:38.681Z,17.33
2022-10-20T02:55:43.713Z,17.14
2022-10-20T02:58:46.790Z,17.06
2022-10-20T03:01:52.750Z,17.12
2022-10-20T03:04:55.868Z,17.24
2022-10-20T03:07:59.017Z,17.30
2022-10-20T03:11:02.109Z,17.22
2022-10-20T03:14:05.218Z,17.28
2022-10-20T03:17:09.886Z,17.31
2022-10-20T03:20:13.203Z,17.35
2022-10-20T03:23:17.840Z,17.39
2022-10-20T03:26:23.184Z,17.35
2022-10-20T03:29:26.259Z,17.35
2022-10-20T03:32:30.763Z,17.35
2022-10-20T03:35:34.165Z,17.23
2022-10-20T03:38:37.317Z,17.37
2022-10-20T03:41:40.443Z,17.22
2022-10-20T03:44:45.059Z,17.31
2022-10-20T03:47:49.961Z,17.28
2022-10-20T03:50:53.010Z,17.27
2022-10-20T03:53:56.080Z,17.14
2022-10-20T03:56:59.187Z,17.29
2022-10-20T04:00:02.242Z,17.13
2022-10-20T04:03:16.171Z,17.13
2022-10-20T04:06:19.407Z,17.23
2022-10-20T04:09:22.479Z,17.08
2022-10-20T04:12:26.498Z,16.97
2022-10-20T04:15:29.771Z,16.93
2022-10-20T04:18:34.253Z,16.76
2022-10-20T04:21:37.331Z,16.78
2022-10-20T04:24:40.573Z,17.00
2022-10-20T04:27:43.701Z,17.01
2022-10-20T04:30:47.811Z,17.00
2022-10-20T04:33:52.247Z,16.76
2022-10-20T04:36:55.308Z,17.10
2022-10-20T04:39:58.761Z,16.95
2022-10-20T04:43:01.892Z,17.06
2022-10-20T04:46:08.477Z,16.92
2022-10-20T04:49:13.612Z,16.94
2022-10-20T04:52:17.333Z,16.92
2022-10-20T04:55:20.494Z,16.98
2022-10-20T04:58:23.918Z,16.84
2022-10-20T05:01:29.685Z,16.99
2022-10-20T05:04:34.182Z,16.87
2022-10-20T05:07:37.553Z,17.13
2022-10-20T05:10:40.940Z,17.05
2022-10-20T05:13:44.472Z,17.05
2022-10-20T05:16:47.498Z,17.18
2022-10-20T05:19:51.998Z,17.25
2022-10-20T05:22:55.030Z,17.07
2022-10-20T05:25:58.118Z,17.17
2022-10-20T05:29:02.305Z,17.12
2022-10-20T05:32:05.907Z,17.13
2022-10-20T05:35:10.803Z,17.18
2022-10-20T05:38:13.881Z,17.04
2022-10-20T05:41:18.807Z,17.29
2022-10-20T05:44:22.079Z,17.49
2022-10-20T05:47:25.324Z,17.63
2022-10-20T05:50:30.821Z,17.81
2022-10-20T05:53:33.940Z,17.94
2022-10-20T05:56:37.093Z,18.12
2022-10-20T05:59:40.238Z,18.44
2022-10-20T06:02:43.375Z,18.30
2022-10-20T06:05:48.061Z,18.63
2022-10-20T06:08:54.239Z,18.61
2022-10-20T06:11:57.380Z,18.84
2022-10-20T06:15:00.574Z,19.32
2022-10-20T06:18:03.667Z,19.22
2022-10-20T06:21:12.332Z,19.15
2022-10-20T06:24:16.642Z,19.45
2022-10-20T06:27:19.787Z,19.46
2022-10-20T06:30:25.194Z,19.41
2022-10-20T06:33:31.322Z,19.60
2022-10-20T06:36:38.069Z,19.87
2022-10-20T06:39:41.230Z,19.95
2022-10-20T06:42:44.332Z,20.24
2022-10-20T06:45:55.393Z,20.34
2022-10-20T06:49:01.296Z,20.58
2022-10-20T06:52:06.143Z,20.64
2022-10-20T06:55:10.311Z,20.80
2022-10-20T06:58:13.510Z,20.97
2022-10-20T07:01:18.039Z,21.41
2022-10-20T07:04:21.152Z,21.71
2022-10-20T07:07:25.682Z,21.77
2022-10-20T07:10:28.803Z,21.64
2022-10-20T07:13:33.240Z,21.85
2022-10-20T07:16:38.543Z,21.79
2022-10-20T07:19:41.753Z,21.52
2022-10-20T07:22:46.366Z,21.83
2022-10-20T07:25:51.359Z,21.67
2022-10-20T07:28:57.585Z,21.93
2022-10-20T07:32:02.071Z,21.97
2022-10-20T07:35:06.021Z,22.10
2022-10-20T07:38:10.571Z,22.55
2022-10-20T07:41:14.163Z,22.70
2022-10-20T07:44:17.490Z,21.80
2022-10-20T07:47:21.149Z,22.27
2022-10-20T07:50:28.018Z,22.39
2022-10-20T07:53:32.656Z,21.77
2022-10-20T07:56:37.852Z,22.66
2022-10-20T07:59:41.140Z,22.23
2022-10-20T08:02:45.625Z,22.24
2022-10-20T08:05:48.856Z,22.65
2022-10-20T08:08:53.748Z,22.77
2022-10-20T08:11:56.934Z,22.96
2022-10-20T08:15:12.503Z,22.85
2022-10-20T08:18:23.172Z,23.33
2022-10-20T08:21:26.469Z,22.83
2022-10-20T08:24:31.744Z,23.23
2022-10-20T08:27:34.906Z,23.21
2022-10-20T08:30:38.524Z,23.19
2022-10-20T08:33:41.998Z,23.48
2022-10-20T08:36:45.248Z,23.65
2022-10-20T08:39:49.797Z,23.97
2022-10-20T08:42:53.689Z,24.53
2022-10-20T08:45:57.069Z,24.28
2022-10-20T08:49:00.932Z,24.59
2022-10-20T08:52:04.408Z,24.26
2022-10-20T08:58:28.377Z,23.87
2022-10-20T09:01:35.835Z,24.54
2022-10-20T09:04:45.914Z,23.83
2022-10-20T09:07:50.226Z,24.24
2022-10-20T09:10:56.465Z,24.05
2022-10-20T09:13:59.739Z,23.75
2022-10-20T09:17:03.342Z,23.98
2022-10-20T09:20:13.339Z,24.30
2022-10-20T09:23:39.419Z,24.43
2022-10-20T09:26:58.046Z,24.68
2022-10-20T09:30:15.796Z,24.83
2022-10-20T09:33:26.256Z,24.96
2022-10-20T09:36:32.691Z,25.12
2022-10-20T09:39:43.482Z,25.41
2022-10-20T09:42:52.010Z,25.32
2022-10-20T09:45:57.683Z,25.67
2022-10-20T09:49:00.963Z,25.51
2022-10-20T09:52:17.219Z,25.10
2022-10-20T09:55:27.668Z,25.57
2022-10-20T09:58:34.882Z,26.03
2022-10-20T10:01:54.585Z,25.67
2022-10-20T10:05:15.939Z,26.11
2022-10-20T10:08:20.082Z,26.37
2022-10-20T10:11:34.201Z,26.79
2022-10-20T10:14:40.267Z,26.83
2022-10-20T10:17:44.695Z,26.46
2022-10-20T10:20:48.001Z,26.93
2022-10-20T10:23:53.344Z,27.24
2022-10-20T10:26:57.788Z,26.88
2022-10-20T10:30:27.779Z,26.54
2022-10-20T10:33:33.157Z,26.03
2022-10-20T10:36:37.914Z,26.33
2022-10-20T10:39:42.793Z,26.32
2022-10-20T10:43:12.994Z,26.69
2022-10-20T10:46:21.129Z,26.64
2022-10-20T10:49:42.373Z,26.44
2022-10-20T10:52:56.897Z,26.31
2022-10-20T10:56:10.155Z,25.35
2022-10-20T10:59:19.194Z,25.64
2022-10-20T11:03:10.030Z,26.02
2022-10-20T11:06:20.531Z,25.79
2022-10-20T11:09:34.216Z,25.97
2022-10-20T11:12:50.912Z,26.18
2022-10-20T11:16:03.081Z,26.06
2022-10-20T11:19:35.546Z,26.19
2022-10-20T11:22:47.805Z,26.44
2022-10-20T11:25:55.967Z,26.51
2022-10-20T11:28:59.883Z,26.72
2022-10-20T11:32:13.165Z,26.79
2022-10-20T11:35:29.181Z,26.80
2022-10-20T11:38:40.498Z,26.66
2022-10-20T11:41:49.385Z,26.22
2022-10-20T11:44:53.706Z,25.97
2022-10-20T11:48:02.971Z,26.08
2022-10-20T11:51:30.497Z,25.76
2022-10-20T11:54:48.222Z,25.77
2022-10-20T11:58:04.409Z,25.47
2022-10-20T12:01:45.266Z,25.87
2022-10-20T12:05:16.495Z,25.48
2022-10-20T12:08:37.395Z,25.42
2022-10-20T12:11:50.498Z,25.50
2022-10-20T12:14:59.452Z,25.44
2022-10-20T12:18:06.628Z,24.88
2022-10-20T12:21:11.801Z,25.01
2022-10-20T12:24:37.980Z,25.20
2022-10-20T12:27:41.196Z,25.36
2022-10-20T12:30:46.462Z,25.14
2022-10-20T12:34:03.873Z,25.37
2022-10-20T12:37:18.066Z,25.32
2022-10-20T12:40:27.698Z,25.58
2022-10-20T12:43:38.676Z,25.53
2022-10-20T12:46:44.858Z,24.43
2022-10-20T12:49:57.943Z,24.79
2022-10-20T12:53:15.155Z,24.55
2022-10-20T12:56:22.304Z,25.05
2022-10-20T12:59:40.837Z,24.79
2022-10-20T13:02:51.732Z,24.84
2022-10-20T13:05:54.891Z,24.98
2022-10-20T13:09:22.602Z,25.22
2022-10-20T13:12:30.643Z,25.32
2022-10-20T13:15:37.982Z,25.51
2022-10-20T13:18:47.304Z,25.54
2022-10-20T13:21:51.668Z,25.38
2022-10-20T13:24:56.758Z,25.53
2022-10-20T13:28:07.859Z,25.14
2022-10-20T13:31:22.091Z,25.48
2022-10-20T13:34:31.926Z,25.65
2022-10-20T13:37:51.813Z,25.93
2022-10-20T13:41:03.179Z,25.89
2022-10-20T13:44:16.597Z,25.67
2022-10-20T13:47:36.897Z,25.22
2022-10-20T13:50:43.738Z,25.28
2022-10-20T13:53:50.176Z,25.26
2022-10-20T13:56:53.951Z,25.33
2022-10-20T14:00:00.575Z,25.49
2022-10-20T14:03:07.346Z,25.34
2022-10-20T14:06:35.641Z,25.22
2022-10-20T14:09:40.685Z,24.92
2022-10-20T14:12:47.218Z,25.01
2022-10-20T14:15:55.212Z,24.59
2022-10-20T14:19:02.945Z,24.68
2022-10-20T14:22:14.197Z,24.84
2022-10-20T14:25:18.138Z,24.83
2022-10-20T14:28:23.366Z,24.71
2022-10-20T14:31:28.369Z,24.59
2022-10-20T14:34:36.037Z,24.55
2022-10-20T14:37:41.721Z,24.57
2022-10-20T14:40:51.828Z,24.45
2022-10-20T14:44:03.380Z,24.16
2022-10-20T14:47:15.158Z,23.86
2022-10-20T14:50:24.402Z,23.76
2022-10-20T14:53:32.420Z,23.65
2022-10-20T14:56:43.951Z,23.55
2022-10-20T14:59:53.837Z,23.51
2022-10-20T15:03:01.672Z,23.43
2022-10-20T15:06:05.733Z,23.40
2022-10-20T15:09:19.527Z,23.27
2022-10-20T15:12:34.655Z,23.21
2022-10-20T15:15:39.563Z,23.10
2022-10-20T15:18:44.216Z,23.06
2022-10-20T15:21:48.181Z,22.98
2022-10-20T15:24:51.463Z,22.88
2022-10-20T15:27:56.451Z,22.47
2022-10-20T15:31:01.313Z,22.62
2022-10-20T15:34:05.933Z,22.46
2022-10-20T15:37:09.978Z,22.43
2022-10-20T15:40:13.706Z,22.35
2022-10-20T15:43:19.408Z,22.18
2022-10-20T15:46:23.066Z,22.19
2022-10-20T15:49:27.654Z,21.93
2022-10-20T15:52:30.834Z,21.79
2022-10-20T15:55:35.815Z,21.80
2022-10-20T15:58:39.943Z,21.67
2022-10-20T16:01:43.644Z,21.67
2022-10-20T16:04:48.229Z,21.36
2022-10-20T16:07:53.142Z,21.41
2022-10-20T16:10:56.873Z,21.14
2022-10-20T16:14:00.127Z,21.03
2022-10-20T16:17:03.589Z,20.97
2022-10-20T16:20:09.639Z,20.86
2022-10-20T16:23:12.848Z,20.71
2022-10-20T16:26:16.252Z,20.75
2022-10-20T16:29:19.493Z,20.70
2022-10-20T16:32:22.686Z,20.80
2022-10-20T16:35:27.319Z,20.92
2022-10-20T16:38:30.596Z,20.91
2022-10-20T16:41:33.828Z,20.43
2022-10-20T16:44:37.026Z,20.51
2022-10-20T16:47:40.402Z,19.93
2022-10-20T16:50:45.127Z,20.10
2022-10-20T16:53:48.460Z,19.79
2022-10-20T16:56:51.739Z,20.12
2022-10-20T16:59:54.853Z,19.89
2022-10-20T17:02:58.134Z,19.95
2022-10-20T17:06:04.774Z,20.02
2022-10-20T17:09:08.196Z,19.88
2022-10-20T17:12:11.517Z,19.85
2022-10-20T17:15:14.711Z,19.80
2022-10-20T17:18:18.005Z,19.84
2022-10-20T17:21:22.708Z,19.79
2022-10-20T17:24:25.893Z,19.98
2022-10-20T17:27:29.043Z,19.91
2022-10-20T17:30:32.307Z,19.59
2022-10-20T17:33:35.474Z,19.45
2022-10-20T17:36:40.114Z,19.72
2022-10-20T17:39:43.282Z,19.70
2022-10-20T17:42:46.483Z,19.69
2022-10-20T17:45:57.876Z,19.78
2022-10-20T17:49:02.173Z,19.78
2022-10-20T17:52:06.899Z,19.72
2022-10-20T17:55:10.439Z,19.83
2022-10-20T17:58:13.639Z,19.84
2022-10-20T18:01:19.172Z,19.82
2022-10-20T18:04:22.443Z,19.68
2022-10-20T18:07:27.624Z,19.69
2022-10-20T18:10:30.858Z,19.76
2022-10-20T18:13:34.090Z,19.56
2022-10-20T18:16:39.635Z,19.61
2022-10-20T18:19:43.837Z,19.61
2022-10-20T18:22:48.402Z,19.57
2022-10-20T18:25:51.567Z,19.58
2022-10-20T18:28:54.909Z,19.52
2022-10-20T18:31:58.098Z,19.42
2022-10-20T18:35:02.356Z,19.30
2022-10-20T18:38:07.004Z,19.08
2022-10-20T18:41:12.499Z,19.24
2022-10-20T18:44:17.338Z,19.22
2022-10-20T18:47:20.612Z,19.15
2022-10-20T18:50:23.835Z,19.14
2022-10-20T18:53:29.767Z,18.90
2022-10-20T18:56:33.163Z,18.93
2022-10-20T18:59:36.358Z,18.73
2022-10-20T19:02:39.623Z,18.84
2022-10-20T19:05:42.932Z,18.79
2022-10-20T19:08:52.694Z,18.71
2022-10-20T19:11:56.021Z,18.58
2022-10-20T19:14:59.224Z,18.75
2022-10-20T19:18:02.437Z,18.70
2022-10-20T19:21:07.241Z,17.96
2022-10-20T19:24:15.358Z,18.27
2022-10-20T19:27:26.691Z,18.08
2022-10-20T19:30:35.431Z,17.92
2022-10-20T19:33:38.642Z,17.87
2022-10-20T19:36:42.797Z,17.71
2022-10-20T19:39:47.435Z,17.82
2022-10-20T19:42:50.665Z,17.24
2022-10-20T19:45:53.896Z,16.89
2022-10-20T19:48:57.497Z,17.28
2022-10-20T19:52:01.032Z,17.14
2022-10-20T19:55:06.191Z,17.16
2022-10-20T20:01:18.834Z,16.52
2022-10-20T20:04:22.604Z,16.49
2022-10-20T20:07:25.837Z,16.43
2022-10-20T20:10:30.544Z,16.28
2022-10-20T20:13:33.785Z,16.09
2022-10-20T20:16:37.309Z,16.27
2022-10-20T20:19:40.859Z,16.30
2022-10-20T20:22:44.082Z,16.11
2022-10-20T20:25:48.751Z,15.81
2022-10-20T20:28:53.843Z,15.69
2022-10-20T20:31:57.015Z,15.83
2022-10-20T20:35:00.355Z,15.69
2022-10-20T20:38:03.711Z,15.70
2022-10-20T20:41:10.423Z,15.94
2022-10-20T20:44:16.143Z,15.78
2022-10-20T20:47:19.306Z,16.04
2022-10-20T20:50:22.547Z,15.42
2022-10-20T20:53:26.028Z,15.69
2022-10-20T20:56:30.869Z,15.61
2022-10-20T20:59:34.058Z,15.34
2022-10-20T21:02:37.366Z,15.52
2022-10-20T21:05:40.574Z,15.54
2022-10-20T21:08:46.461Z,15.74
2022-10-20T21:11:51.102Z,15.36
2022-10-20T21:14:54.203Z,15.51
2022-10-20T21:17:57.385Z,15.61
2022-10-20T21:21:06.875Z,15.18
2022-10-20T21:24:11.473Z,15.30
2022-10-20T21:27:15.922Z,14.86
2022-10-20T21:30:19.123Z,15.22
2022-10-20T21:33:22.394Z,15.41
2022-10-20T21:36:26.511Z,15.47
2022-10-20T21:42:34.133Z,15.28
2022-10-20T21:45:37.466Z,15.42
2022-10-20T21:48:40.635Z,14.93
2022-10-20T21:51:46.405Z,14.90
2022-10-20T21:54:49.553Z,14.97
2022-10-20T21:57:54.084Z,14.98
2022-10-20T22:00:57.344Z,14.72
2022-10-20T22:04:00.457Z,14.73
2022-10-20T22:07:03.645Z,14.65
2022-10-20T22:10:07.613Z,14.75
2022-10-20T22:13:12.126Z,14.92
2022-10-20T22:16:17.514Z,14.69
2022-10-20T22:19:23.312Z,14.71
2022-10-20T22:22:27.693Z,14.58
2022-10-20T22:25:30.811Z,14.28
2022-10-20T22:28:35.342Z,14.54
2022-10-20T22:31:38.715Z,14.59
2022-10-20T22:34:41.829Z,14.39
2022-10-20T22:37:45.015Z,14.55
2022-10-20T22:40:48.275Z,14.47
2022-10-20T22:43:53.065Z,14.62
2022-10-20T22:46:56.262Z,14.57
2022-10-20T22:49:59.460Z,14.84
2022-10-20T22:53:02.638Z,14.64
2022-10-20T22:56:07.647Z,14.71
2022-10-20T22:59:12.266Z,14.89
2022-10-20T23:02:15.434Z,14.78
2022-10-20T23:05:18.807Z,14.75
2022-10-20T23:08:22.012Z,14.97
2022-10-20T23:11:25.446Z,14.90
2022-10-20T23:14:29.973Z,14.74
2022-10-20T23:17:33.277Z,14.47
2022-10-20T23:20:36.498Z,14.45
2022-10-20T23:23:39.913Z,14.56
2022-10-20T23:26:43.570Z,14.39
2022-10-20T23:29:48.175Z,14.58
2022-10-20T23:32:51.371Z,14.62
2022-10-20T23:35:54.579Z,14.51
2022-10-20T23:38:57.783Z,14.38
2022-10-20T23:42:04.784Z,14.59
2022-10-20T23:45:12.600Z,14.75
2022-10-20T23:48:15.818Z,14.43
2022-10-20T23:51:19.039Z,14.76
2022-10-20T23:54:22.406Z,14.93
2022-10-20T23:57:25.609Z,15.22
